Armington, Montana
Current Conditions -  °F | °C
As of 10:56 AM on Thursday 30 Oct 2014 (Local Time) from KGFA Reporting Station
Clear Clear  
Wind Chill:   Ceiling: Unl
Heat Index:   Visibility: 10mi
Dew Point:   Wind: 2mph
Humidity: 62%   Direction: NA
Pressure: 30.27"   Gusts: NA
Location:  47.3298°N, 110.893°W
Report Text: KGFA 301656Z AUTO VRB02KT 10SM CLR 08/01 A3027 RMK AO2 SLP274 T00810013
Loading
Personal Weather Stations






























Interactive Weather Map
Tropical Storm Tracking
New forecast layout! Learn more

10-Day Weather Forecast

Advertisements
Track Severe Weather on mobile